createdAt,value
2022-09-02T00:00:20.924Z,101058.38
2022-09-02T00:00:43.856Z,101079.97
2022-09-02T00:01:13.522Z,101083.91
2022-09-02T00:01:39.163Z,101070.09
2022-09-02T00:02:01.734Z,101081.56
2022-09-02T00:02:24.535Z,101078.59
2022-09-02T00:02:49.107Z,101079.56
2022-09-02T00:03:11.794Z,101077.63
2022-09-02T00:03:36.453Z,101075.03
2022-09-02T00:04:00.369Z,101083.03
2022-09-02T00:04:25.451Z,101072.06
2022-09-02T00:04:48.083Z,101077.63
2022-09-02T00:05:09.872Z,101080.34
2022-09-02T00:05:31.550Z,101082.91
2022-09-02T00:05:53.285Z,101081.94
2022-09-02T00:06:15.764Z,101079.56
2022-09-02T00:06:38.742Z,101080.56
2022-09-02T00:07:00.576Z,101064.06
2022-09-02T00:07:22.268Z,101073.44
2022-09-02T00:07:43.932Z,101074.16
2022-09-02T00:08:07.531Z,101077.84
2022-09-02T00:08:31.876Z,101074.16
2022-09-02T00:08:54.075Z,101075.91
2022-09-02T00:09:19.100Z,101071.34
2022-09-02T00:09:40.821Z,101071.44
2022-09-02T00:10:02.561Z,101080.44
2022-09-02T00:10:24.764Z,101073.94
2022-09-02T00:10:46.480Z,101070.38
2022-09-02T00:11:10.013Z,101078.50
2022-09-02T00:11:33.729Z,101071.34
2022-09-02T00:12:52.450Z,101074.91
2022-09-02T00:13:16.325Z,101073.06
2022-09-02T00:13:38.120Z,101071.44
2022-09-02T00:14:02.940Z,101068.53
2022-09-02T00:14:28.643Z,101072.94
2022-09-02T00:14:50.353Z,101068.53
2022-09-02T00:15:12.335Z,101069.34
2022-09-02T00:15:34.118Z,101078.25
2022-09-02T00:15:56.596Z,101072.81
2022-09-02T00:16:18.873Z,101075.53
2022-09-02T00:16:42.557Z,101070.00
2022-09-02T00:17:05.488Z,101067.50
2022-09-02T00:17:28.020Z,101076.50
2022-09-02T00:17:49.648Z,101079.09
2022-09-02T00:18:15.174Z,101056.69
2022-09-02T00:18:39.193Z,101065.94
2022-09-02T00:19:02.607Z,101072.22
2022-09-02T00:19:25.780Z,101071.34
2022-09-02T00:19:50.980Z,101069.50
2022-09-02T00:20:14.828Z,101067.00
2022-09-02T00:20:36.465Z,101067.66
2022-09-02T00:20:58.469Z,101064.19
2022-09-02T00:21:20.989Z,101063.31
2022-09-02T00:21:43.716Z,101065.94
2022-09-02T00:22:05.423Z,101061.47
2022-09-02T00:22:27.134Z,101062.59
2022-09-02T00:22:48.985Z,101066.13
2022-09-02T00:23:11.908Z,101064.19
2022-09-02T00:23:35.592Z,101067.16
2022-09-02T00:23:57.257Z,101065.31
2022-09-02T00:24:19.608Z,101060.09
2022-09-02T00:24:42.305Z,101060.72
2022-09-02T00:25:04.526Z,101068.75
2022-09-02T00:25:26.298Z,101060.97
2022-09-02T00:25:48.149Z,101062.59
2022-09-02T00:26:10.471Z,101067.16
2022-09-02T00:26:33.275Z,101064.56
2022-09-02T00:26:56.616Z,101068.13
2022-09-02T00:27:18.702Z,101061.84
2022-09-02T00:27:40.443Z,101062.72
2022-09-02T00:28:05.789Z,101063.56
2022-09-02T00:28:29.464Z,101061.84
2022-09-02T00:28:56.197Z,101068.00
2022-09-02T00:29:18.712Z,101066.28
2022-09-02T00:29:40.435Z,101060.97
2022-09-02T00:30:03.119Z,101057.28
2022-09-02T00:30:24.805Z,101062.59
2022-09-02T00:30:46.621Z,101044.34
2022-09-02T00:31:08.524Z,101060.72
2022-09-02T00:31:33.585Z,101060.72
2022-09-02T00:32:31.383Z,101056.44
2022-09-02T00:32:53.711Z,101051.97
2022-09-02T00:33:16.819Z,101060.22
2022-09-02T00:33:39.128Z,101054.81
2022-09-02T00:34:00.810Z,101061.09
2022-09-02T00:34:22.803Z,101058.38
2022-09-02T00:34:45.757Z,101054.81
2022-09-02T00:35:09.201Z,101059.50
2022-09-02T00:35:31.945Z,101054.94
2022-09-02T00:35:53.649Z,101051.72
2022-09-02T00:36:15.359Z,101057.66
2022-09-02T00:36:38.371Z,101052.47
2022-09-02T00:37:00.042Z,101056.03
2022-09-02T00:37:21.701Z,101051.47
2022-09-02T00:37:43.369Z,101060.59
2022-09-02T00:38:06.739Z,101047.28
2022-09-02T00:38:31.188Z,101053.47
2022-09-02T00:38:53.267Z,101061.44
2022-09-02T00:39:15.383Z,101053.47
2022-09-02T00:39:37.072Z,101056.91
2022-09-02T00:39:59.910Z,101056.19
2022-09-02T00:40:23.294Z,101054.44
2022-09-02T00:40:47.925Z,101057.16
2022-09-02T00:41:10.866Z,101051.84
2022-09-02T00:41:34.729Z,101053.81
2022-09-02T00:41:57.472Z,101056.41
2022-09-02T00:42:19.284Z,101050.88
2022-09-02T00:42:41.161Z,101053.47
2022-09-02T00:43:08.233Z,101046.31
2022-09-02T00:43:42.533Z,101054.34
2022-09-02T00:44:07.383Z,101046.03
2022-09-02T00:44:29.289Z,101046.53
2022-09-02T00:44:51.076Z,101052.72
2022-09-02T00:45:12.964Z,101053.69
2022-09-02T00:45:38.099Z,101057.38
2022-09-02T00:45:59.900Z,101050.97
2022-09-02T00:46:24.956Z,101049.13
2022-09-02T00:46:48.716Z,101055.66
2022-09-02T00:47:11.136Z,101049.50
2022-09-02T00:47:33.118Z,101054.81
2022-09-02T00:47:55.215Z,101046.78
2022-09-02T00:48:17.994Z,101052.47
2022-09-02T00:48:43.492Z,101042.81
2022-09-02T00:49:09.093Z,101046.38
2022-09-02T00:49:34.306Z,101047.25
2022-09-02T00:49:56.335Z,101027.19
2022-09-02T00:50:21.177Z,101049.97
2022-09-02T00:50:43.094Z,101049.84
2022-09-02T00:51:06.896Z,101044.44
2022-09-02T00:51:33.096Z,101050.84
2022-09-02T00:52:01.745Z,101050.72
2022-09-02T00:52:29.896Z,101039.28
2022-09-02T00:52:56.524Z,101050.84
2022-09-02T00:53:18.381Z,101042.72
2022-09-02T00:53:43.694Z,101038.53
2022-09-02T00:54:06.238Z,101051.59
2022-09-02T00:54:31.221Z,101042.50
2022-09-02T00:54:56.234Z,101047.91
2022-09-02T00:55:20.769Z,101050.47
2022-09-02T00:55:46.585Z,101054.16
2022-09-02T00:56:13.909Z,101018.78
2022-09-02T00:56:38.248Z,101048.47
2022-09-02T00:57:04.810Z,101046.38
2022-09-02T00:57:32.295Z,101046.28
2022-09-02T00:57:59.597Z,101047.41
2022-09-02T00:58:25.843Z,101038.88
2022-09-02T00:58:50.592Z,101044.56
2022-09-02T00:59:17.970Z,101042.09
2022-09-02T00:59:46.333Z,101044.81
2022-09-02T01:00:16.567Z,101051.19
2022-09-02T01:00:42.957Z,101047.63
2022-09-02T01:01:05.396Z,101051.28
2022-09-02T01:01:28.045Z,101046.75
2022-09-02T01:01:51.751Z,101043.94
2022-09-02T01:02:13.871Z,101041.59
2022-09-02T01:02:37.349Z,101043.31
2022-09-02T01:03:01.916Z,101038.09
2022-09-02T01:03:28.029Z,101050.31
2022-09-02T01:03:50.397Z,101043.31
2022-09-02T01:04:12.283Z,101046.63
2022-09-02T01:04:35.315Z,101044.91
2022-09-02T01:04:58.769Z,101033.69
2022-09-02T01:05:23.372Z,101039.81
2022-09-02T01:05:47.099Z,101042.34
2022-09-02T01:06:11.816Z,101054.66
2022-09-02T01:06:34.816Z,101042.81
2022-09-02T01:06:56.693Z,101052.06
2022-09-02T01:07:18.505Z,101046.75
2022-09-02T01:07:40.525Z,101054.00
2022-09-02T01:08:03.130Z,101046.75
2022-09-02T01:08:30.040Z,101044.91
2022-09-02T01:08:58.303Z,101052.06
2022-09-02T01:09:20.262Z,101046.88
2022-09-02T01:09:42.128Z,101035.19
2022-09-02T01:10:07.063Z,101044.91
2022-09-02T01:10:34.404Z,101042.63
2022-09-02T01:10:56.963Z,101043.19
2022-09-02T01:11:21.279Z,101045.16
2022-09-02T01:11:47.930Z,101046.03
2022-09-02T01:12:12.660Z,101043.66
2022-09-02T01:12:35.680Z,101044.50
2022-09-02T01:12:59.444Z,101042.78
2022-09-02T01:13:25.144Z,101050.91
2022-09-02T01:13:47.524Z,101043.75
2022-09-02T01:14:12.388Z,101047.22
2022-09-02T01:14:35.392Z,101042.78
2022-09-02T01:14:57.511Z,101049.28
2022-09-02T01:15:19.136Z,101045.59
2022-09-02T01:15:44.041Z,101040.19
2022-09-02T01:16:11.642Z,101042.78
2022-09-02T01:16:42.043Z,101043.75
2022-09-02T01:17:06.957Z,101044.97
2022-09-02T01:17:28.897Z,101042.88
2022-09-02T01:17:51.719Z,101051.88
2022-09-02T01:18:28.865Z,101048.91
2022-09-02T01:18:53.815Z,101042.00
2022-09-02T01:19:21.752Z,101038.59
2022-09-02T01:19:47.788Z,101036.59
2022-09-02T01:20:13.212Z,101042.13
2022-09-02T01:20:35.137Z,101030.69
2022-09-02T01:20:59.612Z,101044.72
2022-09-02T01:21:24.136Z,101049.28
2022-09-02T01:21:48.552Z,101058.25
2022-09-02T01:22:16.196Z,101051.88
2022-09-02T01:22:41.594Z,101057.41
2022-09-02T01:23:03.315Z,101041.28
2022-09-02T01:23:25.533Z,101047.69
2022-09-02T01:23:48.737Z,101044.22
2022-09-02T01:24:11.471Z,101057.53
2022-09-02T01:24:34.652Z,101052.34
2022-09-02T01:24:59.918Z,101047.69
2022-09-02T01:25:25.477Z,101046.56
2022-09-02T01:25:48.298Z,101048.53
2022-09-02T01:26:10.721Z,101047.03
2022-09-02T01:26:32.572Z,101047.03
2022-09-02T01:26:57.096Z,101048.91
2022-09-02T01:27:22.174Z,101047.38
2022-09-02T01:27:44.256Z,101032.59
2022-09-02T01:28:09.099Z,101043.59
2022-09-02T01:28:33.393Z,101037.66
2022-09-02T01:28:58.965Z,101040.47
2022-09-02T01:29:20.903Z,101047.72
2022-09-02T01:29:42.840Z,101043.91
2022-09-02T01:30:11.758Z,101044.66
2022-09-02T01:30:36.429Z,101043.66
2022-09-02T01:30:58.070Z,101050.06
2022-09-02T01:31:19.852Z,101044.41
2022-09-02T01:31:41.620Z,101044.53
2022-09-02T01:32:04.501Z,101045.53
2022-09-02T01:32:28.677Z,101046.59
2022-09-02T01:32:50.794Z,101017.03
2022-09-02T01:33:12.499Z,101051.03
2022-09-02T01:33:35.568Z,101046.59
2022-09-02T01:33:57.987Z,101042.06
2022-09-02T01:34:21.146Z,101042.91
2022-09-02T01:34:42.805Z,101044.66
2022-09-02T01:35:05.666Z,101027.59
2022-09-02T01:35:28.405Z,101038.84
2022-09-02T01:35:50.570Z,101039.06
2022-09-02T01:36:12.311Z,101038.22
2022-09-02T01:36:38.120Z,101037.44
2022-09-02T01:37:02.379Z,101046.19
2022-09-02T01:37:24.159Z,101043.38
2022-09-02T01:37:54.713Z,101040.69
2022-09-02T01:38:27.828Z,101040.56
2022-09-02T01:38:50.552Z,101039.69
2022-09-02T01:39:14.028Z,101029.97
2022-09-02T01:39:35.952Z,101040.44
2022-09-02T01:39:58.826Z,101042.31
2022-09-02T01:40:20.600Z,101042.31
2022-09-02T01:40:44.007Z,101039.69
2022-09-02T01:41:06.579Z,101035.16
2022-09-02T01:41:28.215Z,101033.41
2022-09-02T01:41:50.955Z,101040.31
2022-09-02T01:42:14.612Z,101035.00
2022-09-02T01:42:39.697Z,101043.91
2022-09-02T01:43:07.116Z,101026.41
2022-09-02T01:43:29.775Z,101035.78
2022-09-02T01:43:52.421Z,101032.09
2022-09-02T01:44:16.075Z,101040.13
2022-09-02T01:44:43.909Z,101039.25
2022-09-02T01:45:08.832Z,101037.63
2022-09-02T01:45:30.561Z,101039.09
2022-09-02T01:45:56.209Z,101036.41
2022-09-02T01:46:20.353Z,101041.94
2022-09-02T01:46:42.165Z,101031.22
2022-09-02T01:47:04.488Z,101028.78
2022-09-02T01:47:27.522Z,101030.38
2022-09-02T01:47:50.908Z,101036.53
2022-09-02T01:48:14.003Z,101037.41
2022-09-02T01:48:42.972Z,101033.94
2022-09-02T01:49:06.470Z,101034.91
2022-09-02T01:49:28.157Z,101030.38
2022-09-02T01:49:51.139Z,101032.81
2022-09-02T01:50:13.136Z,101036.53
2022-09-02T01:50:37.236Z,101034.81
2022-09-02T01:51:02.216Z,101027.66
2022-09-02T01:51:24.274Z,101034.69
2022-09-02T01:51:46.769Z,101039.25
2022-09-02T01:52:10.033Z,101031.22
2022-09-02T01:52:33.323Z,101037.50
2022-09-02T01:52:56.858Z,101033.94
2022-09-02T01:53:18.699Z,101029.75
2022-09-02T01:53:40.465Z,101035.78
2022-09-02T01:54:02.573Z,101029.38
2022-09-02T01:54:25.216Z,101029.38
2022-09-02T01:54:47.428Z,101034.81
2022-09-02T01:55:09.632Z,101036.66
2022-09-02T01:55:31.772Z,101037.50
2022-09-02T01:55:54.748Z,101025.72
2022-09-02T01:56:17.073Z,101015.69
2022-09-02T01:56:39.152Z,101030.38
2022-09-02T01:57:01.263Z,101020.00
2022-09-02T01:57:24.621Z,101031.13
2022-09-02T01:57:47.521Z,101033.84
2022-09-02T01:58:10.090Z,101012.13
2022-09-02T01:58:31.847Z,101032.09
2022-09-02T01:58:55.056Z,101026.69
2022-09-02T01:59:17.977Z,101028.53
2022-09-02T01:59:39.700Z,101027.56
2022-09-02T02:00:04.152Z,101025.56
2022-09-02T02:00:34.750Z,101011.88
2022-09-02T02:00:56.812Z,101028.41
2022-09-02T02:01:19.511Z,101023.97
2022-09-02T02:01:41.849Z,101022.00
2022-09-02T02:02:05.127Z,101032.97
2022-09-02T02:02:28.490Z,101017.94
2022-09-02T02:02:51.731Z,101022.13
2022-09-02T02:03:13.817Z,101026.69
2022-09-02T02:03:35.827Z,101020.41
2022-09-02T02:03:59.761Z,101021.47
2022-09-02T02:04:24.628Z,101028.78
2022-09-02T02:04:49.428Z,101032.22
2022-09-02T02:05:11.814Z,101027.03
2022-09-02T02:05:34.793Z,101026.16
2022-09-02T02:05:58.610Z,101030.72
2022-09-02T02:06:20.649Z,101027.91
2022-09-02T02:06:44.405Z,101025.19
2022-09-02T02:07:07.133Z,101029.84
2022-09-02T02:07:31.913Z,101022.50
2022-09-02T02:07:54.298Z,101028.63
2022-09-02T02:08:16.511Z,101027.66
2022-09-02T02:08:38.650Z,101026.06
2022-09-02T02:09:01.336Z,101028.00
2022-09-02T02:09:23.588Z,101027.91
2022-09-02T02:09:46.889Z,101030.59
2022-09-02T02:10:11.751Z,101029.75
2022-09-02T02:10:35.222Z,101031.59
2022-09-02T02:10:57.388Z,101027.91
2022-09-02T02:11:20.643Z,101033.31
2022-09-02T02:11:45.799Z,101024.44
2022-09-02T02:12:12.815Z,101028.00
2022-09-02T02:12:34.537Z,101022.50
2022-09-02T02:13:00.096Z,101027.38
2022-09-02T02:13:24.219Z,101034.28
2022-09-02T02:13:48.468Z,101037.09
2022-09-02T02:14:10.857Z,101030.72
2022-09-02T02:14:39.548Z,101036.13
2022-09-02T02:15:02.190Z,101025.56
2022-09-02T02:15:46.439Z,101030.81
2022-09-02T02:16:08.203Z,101028.25
2022-09-02T02:16:30.214Z,101033.78
2022-09-02T02:16:52.921Z,101031.06
2022-09-02T02:17:14.667Z,101020.94
2022-09-02T02:17:36.711Z,101033.88
2022-09-02T02:18:00.445Z,101027.22
2022-09-02T02:18:23.257Z,101033.88
2022-09-02T02:18:47.974Z,101019.63
2022-09-02T02:19:09.703Z,101027.84
2022-09-02T02:19:31.852Z,101034.03
2022-09-02T02:19:54.148Z,101030.31
2022-09-02T02:20:18.996Z,101031.16
2022-09-02T02:20:40.715Z,101035.72
2022-09-02T02:21:06.536Z,101033.88
2022-09-02T02:21:28.378Z,101033.88
2022-09-02T02:21:51.331Z,101031.31
2022-09-02T02:22:13.968Z,101031.53
2022-09-02T02:22:37.728Z,101029.59
2022-09-02T02:22:59.460Z,101035.00
2022-09-02T02:23:22.444Z,101033.00
2022-09-02T02:23:44.215Z,101030.19
2022-09-02T02:24:07.884Z,101030.19
2022-09-02T02:24:29.792Z,101032.03
2022-09-02T02:24:51.527Z,101025.91
2022-09-02T02:25:16.034Z,101025.91
2022-09-02T02:25:37.976Z,101032.16
2022-09-02T02:26:00.209Z,101031.41
2022-09-02T02:26:21.903Z,101029.69
2022-09-02T02:26:43.577Z,101027.22
2022-09-02T02:27:06.622Z,101021.16
2022-09-02T02:27:28.375Z,101030.66
2022-09-02T02:27:51.278Z,101030.66
2022-09-02T02:28:16.410Z,101036.06
2022-09-02T02:28:38.348Z,101038.91
2022-09-02T02:29:00.660Z,101032.84
2022-09-02T02:29:23.668Z,101034.69
2022-09-02T02:29:46.007Z,101033.81
2022-09-02T02:30:10.064Z,101036.66
2022-09-02T02:30:32.385Z,101019.16
2022-09-02T02:30:55.817Z,101028.53
2022-09-02T02:31:17.583Z,101031.97
2022-09-02T02:31:42.263Z,101030.50
2022-09-02T02:32:07.384Z,101035.03
2022-09-02T02:32:29.182Z,101011.59
2022-09-02T02:32:52.051Z,101032.97
2022-09-02T02:33:15.620Z,101030.38
2022-09-02T02:33:38.316Z,101025.31
2022-09-02T02:34:00.421Z,101036.66
2022-09-02T02:34:23.404Z,101036.88
2022-09-02T02:34:45.519Z,101036.13
2022-09-02T02:35:08.252Z,101040.06
2022-09-02T02:35:30.171Z,101036.59
2022-09-02T02:35:53.490Z,101019.41
2022-09-02T02:36:18.207Z,101037.66
2022-09-02T02:36:40.417Z,101035.78
2022-09-02T02:37:02.129Z,101039.28
2022-09-02T02:37:25.633Z,101042.88
2022-09-02T02:37:51.326Z,101018.84
2022-09-02T02:38:14.401Z,101032.91
2022-09-02T02:38:39.098Z,101038.22
2022-09-02T02:39:01.532Z,101037.47
2022-09-02T02:39:24.503Z,101031.25
2022-09-02T02:39:46.451Z,101034.66
2022-09-02T02:40:10.229Z,101035.63
2022-09-02T02:40:32.116Z,101034.66
2022-09-02T02:40:57.446Z,101033.78
2022-09-02T02:41:20.669Z,101027.25
2022-09-02T02:41:44.601Z,101035.53
2022-09-02T02:42:08.100Z,101025.97
2022-09-02T02:42:30.849Z,101025.53
2022-09-02T02:42:53.971Z,101027.50
2022-09-02T02:43:17.536Z,101038.09
2022-09-02T02:43:40.608Z,101037.13
2022-09-02T02:44:02.604Z,101035.28
2022-09-02T02:44:24.397Z,101031.69
2022-09-02T02:44:46.212Z,101036.13
2022-09-02T02:45:14.979Z,101033.53
2022-09-02T02:45:37.433Z,101033.44
2022-09-02T02:45:59.286Z,101030.72
2022-09-02T02:46:21.461Z,101023.59
2022-09-02T02:46:43.818Z,101026.63
2022-09-02T02:47:08.337Z,101034.16
2022-09-02T02:47:30.065Z,101036.13
2022-09-02T02:47:52.755Z,101034.16
2022-09-02T02:48:16.480Z,101029.75
2022-09-02T02:48:39.071Z,101027.25
2022-09-02T02:49:01.508Z,101034.94
2022-09-02T02:49:23.336Z,101030.72
2022-09-02T02:49:45.958Z,101030.09
2022-09-02T02:50:10.516Z,101039.91
2022-09-02T02:50:32.188Z,101027.25
2022-09-02T02:50:53.977Z,101031.94
2022-09-02T02:51:16.904Z,101027.41
2022-09-02T02:51:40.024Z,101029.97
2022-09-02T02:52:01.769Z,101035.28
2022-09-02T02:52:23.638Z,101034.41
2022-09-02T02:52:48.757Z,101024.69
2022-09-02T02:53:13.437Z,101007.06
2022-09-02T02:53:36.889Z,101030.72
2022-09-02T02:53:59.860Z,101029.97
2022-09-02T02:54:23.756Z,101021.22
2022-09-02T02:54:49.303Z,101036.13
2022-09-02T02:55:13.776Z,101035.91
2022-09-02T02:55:36.631Z,101032.56
2022-09-02T02:55:58.374Z,101029.88
2022-09-02T02:56:20.043Z,101030.84
2022-09-02T02:56:42.450Z,101027.16
2022-09-02T02:57:06.649Z,101033.34
2022-09-02T02:57:28.507Z,101024.47
2022-09-02T02:57:51.845Z,101032.66
2022-09-02T02:58:16.547Z,101000.59
2022-09-02T02:58:39.464Z,101029.00
2022-09-02T02:59:03.969Z,101031.69
2022-09-02T02:59:27.283Z,101032.56
2022-09-02T02:59:48.953Z,101027.06
2022-09-02T03:00:14.079Z,101023.34
2022-09-02T03:00:37.386Z,101026.91
2022-09-02T03:01:00.876Z,101029.63
2022-09-02T03:01:23.997Z,101025.31
2022-09-02T03:01:46.892Z,101034.16
2022-09-02T03:02:09.268Z,101024.69
2022-09-02T03:02:33.275Z,101026.06
2022-09-02T03:02:56.229Z,101029.34
2022-09-02T03:03:19.621Z,101024.00
2022-09-02T03:03:44.800Z,101033.66
2022-09-02T03:04:06.910Z,101033.66
2022-09-02T03:04:28.885Z,101030.09
2022-09-02T03:04:54.150Z,101032.81
2022-09-02T03:05:17.081Z,101025.47
2022-09-02T03:05:42.063Z,101028.91
2022-09-02T03:06:03.989Z,101026.44
2022-09-02T03:06:26.810Z,101032.38
2022-09-02T03:06:50.964Z,101028.69
2022-09-02T03:07:13.637Z,101030.53
2022-09-02T03:07:35.423Z,101029.41
2022-09-02T03:07:59.762Z,101025.97
2022-09-02T03:08:25.662Z,101026.72
2022-09-02T03:08:48.870Z,101029.34
2022-09-02T03:09:13.592Z,101030.38
2022-09-02T03:09:35.978Z,101028.91
2022-09-02T03:09:57.787Z,101023.72
2022-09-02T03:10:22.217Z,101029.03
2022-09-02T03:10:44.125Z,101016.69
2022-09-02T03:11:07.073Z,101031.38
2022-09-02T03:11:32.691Z,101027.69
2022-09-02T03:11:55.444Z,101029.41
2022-09-02T03:12:17.956Z,101028.56
2022-09-02T03:12:40.581Z,101027.50
2022-09-02T03:13:03.214Z,101030.09
2022-09-02T03:13:26.717Z,101029.97
2022-09-02T03:13:52.410Z,101024.69
2022-09-02T03:14:14.386Z,101030.84
2022-09-02T03:14:37.225Z,101027.25
2022-09-02T03:14:59.053Z,101028.38
2022-09-02T03:15:22.588Z,101024.69
2022-09-02T03:15:48.116Z,101028.22
2022-09-02T03:16:10.338Z,101025.53
2022-09-02T03:16:34.624Z,101024.81
2022-09-02T03:16:57.645Z,101027.16
2022-09-02T03:17:19.731Z,101025.44
2022-09-02T03:17:42.018Z,101018.59
2022-09-02T03:18:03.972Z,101024.56
2022-09-02T03:18:25.886Z,101018.53
2022-09-02T03:18:48.961Z,101025.66
2022-09-02T03:19:14.014Z,101026.63
2022-09-02T03:19:35.951Z,101027.50
2022-09-02T03:19:59.341Z,101025.53
2022-09-02T03:20:26.304Z,101019.91
2022-09-02T03:20:52.240Z,101023.06
2022-09-02T03:21:15.997Z,101023.06
2022-09-02T03:21:39.461Z,101023.06
2022-09-02T03:22:04.654Z,101027.69
2022-09-02T03:22:26.977Z,101025.78
2022-09-02T03:22:50.495Z,101026.53
2022-09-02T03:23:13.103Z,101007.41
2022-09-02T03:23:39.725Z,101021.22
2022-09-02T03:24:03.834Z,101020.56
2022-09-02T03:24:25.522Z,101023.28
2022-09-02T03:24:47.531Z,101021.44
2022-09-02T03:25:11.414Z,101027.69
2022-09-02T03:25:36.376Z,101015.63
2022-09-02T03:26:11.086Z,101024.47
2022-09-02T03:26:33.452Z,101028.78
2022-09-02T03:26:56.156Z,101026.94
2022-09-02T03:27:17.816Z,101025.13
2022-09-02T03:27:41.039Z,101027.94
2022-09-02T03:28:03.882Z,101023.38
2022-09-02T03:28:26.941Z,101028.78
2022-09-02T03:28:49.633Z,101027.06
2022-09-02T03:29:12.057Z,101031.50
2022-09-02T03:29:33.756Z,101027.94
2022-09-02T03:29:56.728Z,101027.81
2022-09-02T03:30:22.226Z,101025.31
2022-09-02T03:30:45.963Z,101028.91
2022-09-02T03:31:14.669Z,101023.72
2022-09-02T03:31:37.522Z,101032.81
2022-09-02T03:31:59.281Z,101025.47
2022-09-02T03:32:23.292Z,101020.91
2022-09-02T03:32:48.953Z,101023.19
2022-09-02T03:33:10.780Z,101022.84
2022-09-02T03:33:33.752Z,101024.81
2022-09-02T03:33:55.617Z,101022.84
2022-09-02T03:34:18.029Z,101028.38
2022-09-02T03:34:41.684Z,101030.09
2022-09-02T03:35:04.944Z,101027.31
2022-09-02T03:35:27.850Z,101021.88
2022-09-02T03:35:49.541Z,101022.00
2022-09-02T03:36:21.207Z,101021.03
2022-09-02T03:36:44.714Z,101002.03
2022-09-02T03:37:09.438Z,101026.44
2022-09-02T03:37:32.009Z,101016.59
2022-09-02T03:37:55.426Z,101029.13
2022-09-02T03:38:19.813Z,101025.66
2022-09-02T03:38:42.846Z,101016.59
2022-09-02T03:39:10.002Z,101019.28
2022-09-02T03:39:33.007Z,101022.00
2022-09-02T03:39:54.635Z,101025.56
2022-09-02T03:40:18.884Z,101022.84
2022-09-02T03:40:42.493Z,101021.13
2022-09-02T03:41:04.247Z,101024.81
2022-09-02T03:41:27.015Z,101021.13
2022-09-02T03:41:50.327Z,101013.97
2022-09-02T03:42:19.295Z,101021.03
2022-09-02T03:42:43.301Z,101022.00
2022-09-02T03:43:09.597Z,101022.09
2022-09-02T03:43:31.873Z,101022.09
2022-09-02T03:43:53.543Z,101021.13
2022-09-02T03:44:15.331Z,101022.97
2022-09-02T03:44:41.088Z,101017.56
2022-09-02T03:45:03.662Z,101017.56
2022-09-02T03:45:25.419Z,101014.22
2022-09-02T03:45:47.684Z,101022.00
2022-09-02T03:46:10.208Z,101015.72
2022-09-02T03:46:33.179Z,101020.25
2022-09-02T03:46:55.192Z,101010.44
2022-09-02T03:47:20.765Z,101015.84
2022-09-02T03:47:51.248Z,101015.84
2022-09-02T03:48:16.248Z,101015.84
2022-09-02T03:48:40.032Z,101019.28
2022-09-02T03:49:03.407Z,101023.84
2022-09-02T03:49:27.756Z,101018.41
2022-09-02T03:49:50.698Z,101016.59
2022-09-02T03:50:12.707Z,101003.00
2022-09-02T03:50:39.315Z,101016.81
2022-09-02T03:51:03.211Z,101009.25
2022-09-02T03:51:26.407Z,101017.03
2022-09-02T03:51:48.357Z,101016.06
2022-09-02T03:52:11.004Z,101014.22
2022-09-02T03:52:34.576Z,101016.16
2022-09-02T03:52:56.713Z,101021.72
2022-09-02T03:53:22.984Z,101008.63
2022-09-02T03:53:53.279Z,101005.84
2022-09-02T03:54:15.611Z,101011.09
2022-09-02T03:54:37.340Z,101020.22
2022-09-02T03:54:59.031Z,101013.81
2022-09-02T03:55:22.756Z,101010.22
2022-09-02T03:55:45.463Z,101014.56
2022-09-02T03:56:11.970Z,101008.28
2022-09-02T03:56:35.081Z,101021.72
2022-09-02T03:56:57.483Z,101016.41
2022-09-02T03:57:23.007Z,101021.72
2022-09-02T03:57:44.844Z,101011.34
2022-09-02T03:58:08.516Z,101026.34
2022-09-02T03:58:32.847Z,101007.88
2022-09-02T03:58:56.361Z,101020.94
2022-09-02T03:59:20.832Z,101009.59
2022-09-02T03:59:42.792Z,101019.88
2022-09-02T04:00:08.044Z,101009.16
2022-09-02T04:00:36.381Z,101011.09
2022-09-02T04:00:59.613Z,101015.53
2022-09-02T04:01:25.184Z,101016.50
2022-09-02T04:01:50.258Z,101009.25
2022-09-02T04:02:12.221Z,101011.09
2022-09-02T04:02:34.493Z,101015.78
2022-09-02T04:02:57.495Z,101010.22
2022-09-02T04:03:20.596Z,101007.16
2022-09-02T04:03:43.711Z,101015.78
2022-09-02T04:04:06.333Z,101013.06
2022-09-02T04:04:31.184Z,101010.47
2022-09-02T04:04:52.921Z,101013.94
2022-09-02T04:05:15.930Z,101014.03
2022-09-02T04:05:37.943Z,100994.06
2022-09-02T04:06:00.251Z,101016.75
2022-09-02T04:06:26.239Z,101017.63
2022-09-02T04:06:55.188Z,101016.75
2022-09-02T04:07:16.967Z,101014.16
2022-09-02T04:07:39.669Z,101022.16
2022-09-02T04:08:02.824Z,101017.72
2022-09-02T04:08:25.955Z,101016.84
2022-09-02T04:08:51.228Z,101011.59
2022-09-02T04:09:12.989Z,101007.88
2022-09-02T04:09:36.513Z,101008.75
2022-09-02T04:09:58.740Z,101015.13
2022-09-02T04:10:21.955Z,101010.72
2022-09-02T04:10:44.571Z,101013.53
2022-09-02T04:11:08.359Z,101018.06
2022-09-02T04:11:31.668Z,101016.00
2022-09-02T04:11:54.257Z,101009.72
2022-09-02T04:12:15.916Z,101013.94
2022-09-02T04:12:37.836Z,101009.50
2022-09-02T04:13:01.011Z,101012.75
2022-09-02T04:13:22.849Z,101009.72
2022-09-02T04:13:45.551Z,101008.97
2022-09-02T04:14:11.175Z,101015.00
2022-09-02T04:14:33.132Z,101006.38
2022-09-02T04:14:55.084Z,101007.88
2022-09-02T04:15:20.270Z,101000.97
2022-09-02T04:15:47.767Z,101006.03
2022-09-02T04:16:13.835Z,101010.38
2022-09-02T04:16:36.095Z,101012.22
2022-09-02T04:17:01.317Z,101013.19
2022-09-02T04:17:23.226Z,101010.59
2022-09-02T04:17:44.971Z,101007.00
2022-09-02T04:18:09.655Z,101007.00
2022-09-02T04:18:31.318Z,101014.16
2022-09-02T04:18:54.374Z,101013.28
2022-09-02T04:19:16.771Z,101015.13
2022-09-02T04:19:40.254Z,101006.28
2022-09-02T04:20:02.356Z,101012.56
2022-09-02T04:20:26.011Z,101004.66
2022-09-02T04:20:48.042Z,101002.06
2022-09-02T04:21:10.795Z,101007.25
2022-09-02T04:21:36.382Z,101010.91
2022-09-02T04:21:58.321Z,101011.78
2022-09-02T04:22:20.224Z,101018.94
2022-09-02T04:22:41.946Z,101007.00
2022-09-02T04:23:04.828Z,101014.38
2022-09-02T04:23:28.222Z,101005.16
2022-09-02T04:23:52.526Z,101002.06
2022-09-02T04:24:16.362Z,101001.59
2022-09-02T04:24:41.547Z,101007.00
2022-09-02T04:25:04.532Z,101006.19
2022-09-02T04:25:28.032Z,101000.97
2022-09-02T04:25:51.277Z,101011.69
2022-09-02T04:26:14.938Z,101004.44
2022-09-02T04:26:37.563Z,101008.00
2022-09-02T04:27:06.505Z,101002.59
2022-09-02T04:27:30.707Z,101011.59
2022-09-02T04:27:53.444Z,101005.16
2022-09-02T04:28:17.217Z,101006.19
2022-09-02T04:28:39.318Z,101008.97
2022-09-02T04:29:01.141Z,101005.31
2022-09-02T04:29:26.233Z,100989.78
2022-09-02T04:29:48.557Z,101008.53
2022-09-02T04:30:13.300Z,101007.66